Puerto Banus, Marbella

>

This is an optional block (switch it off / on) in the settings - file ($SITE['banners'] = false;)

You can display ads, any other important text or photo’s using text / html or PHP code.

You can place one or more at the top and or bottom and it can all be different for content / size .



Meteosat more information blitzortung!


Radar lluvias  rain snow radar


Visita nuestra red de sitios de meteo:

Documentation for the template used

MeteoibericaRed estaciones Meteorologicas

MeteoclimaticRed estaciones Meteorologicas



Viento Desde: 19-04-2018 23:00 Hasta: 21-04-2018 04:59 Advertencias para: Viento Nivel: Amarillo info button

Pagina Historial Weather Underground texto

Diario Resumen Diciembre 31, 2017 Unidades:  impérial    Métrico   Tanto
« Anterior Dia
Siguiente Dia »
Diario Semana Mensual Anual Personalizada
  Maxima: Minima: Media:
Temperatura: TemperatureC °F 11.4 °F 15.3 °F
Punto de rocío: DewpointC °F 8.2 °F 10.3 °F
Humedad: Humidity % 54 % 72 %
Velocidad del Viento: WindSpeedKMH mph 0.0 mph 14.6 mph
Ráfagas de viento: WindSpeedGustKMH mph - -
Viento:- - West
Pression baro: PressurehPa in 1023.9 in -
Précipitaciones: 0.0 in    
Historical Graphs
 
 
Datos de tabla para Diciembre 31, 2017
Tiempo Temperatura Punto de rocío Pression baro Viento Velocidad del Viento Ráfagas de viento Humedad Las precipitaciones Rate ( Hora )
TemperatureC °F DewpointC °F PressurehPa in Calm     Humidity % HourlyPrecipMM in
00:03 13.0 °F 10.2 °F 1025.6 in North 9.3 mph 9.3 mph 83 % 0.0 in
00:04 13.0 °F 10.2 °F 1025.6 in North 11.1 mph 11.1 mph 83 % 0.0 in
00:09 13.1 °F 10.1 °F 1025.6 in North 14.8 mph 14.8 mph 82 % 0.0 in
00:11 13.1 °F 10.1 °F 1025.6 in North 13.0 mph 13.0 mph 82 % 0.0 in
00:15 13.2 °F 10.2 °F 1025.6 in North 11.1 mph 11.1 mph 82 % 0.0 in
00:16 13.2 °F 10.2 °F 1025.6 in North 13.0 mph 13.0 mph 82 % 0.0 in
00:21 13.1 °F 10.1 °F 1025.6 in North 13.0 mph 13.0 mph 82 % 0.0 in
00:22 13.1 °F 10.1 °F 1025.6 in North 13.0 mph 13.0 mph 82 % 0.0 in
00:26 13.1 °F 10.1 °F 1025.6 in North 13.0 mph 13.0 mph 82 % 0.0 in
00:28 13.1 °F 10.1 °F 1025.6 in NNW 13.0 mph 13.0 mph 82 % 0.0 in
00:33 13.0 °F 10.0 °F 1025.6 in North 11.1 mph 11.1 mph 82 % 0.0 in
00:34 13.0 °F 10.0 °F 1025.6 in North 11.1 mph 11.1 mph 82 % 0.0 in
00:39 13.0 °F 10.0 °F 1025.6 in North 9.3 mph 9.3 mph 82 % 0.0 in
00:44 13.1 °F 9.9 °F 1025.6 in North 11.1 mph 11.1 mph 81 % 0.0 in
00:48 13.1 °F 9.9 °F 1025.6 in North 11.3 mph 11.3 mph 81 % 0.0 in
00:53 13.1 °F 9.9 °F 1025.6 in North 11.3 mph 11.3 mph 81 % 0.0 in
00:54 13.1 °F 9.9 °F 1025.6 in NNW 11.1 mph 11.1 mph 81 % 0.0 in
00:59 13.1 °F 9.9 °F 1025.6 in NNW 9.7 mph 9.7 mph 81 % 0.0 in
01:00 13.1 °F 9.9 °F 1025.6 in NNW 9.7 mph 9.7 mph 81 % 0.0 in
01:01 13.1 °F 9.9 °F 1025.6 in North 11.1 mph 11.1 mph 81 % 0.0 in
01:06 13.1 °F 9.9 °F 1025.3 in North 11.1 mph 11.1 mph 81 % 0.0 in
01:11 13.1 °F 9.9 °F 1025.6 in NNW 9.3 mph 9.3 mph 81 % 0.0 in
01:12 13.1 °F 9.9 °F 1025.6 in NNW 9.3 mph 9.3 mph 81 % 0.0 in
01:13 13.1 °F 9.9 °F 1025.6 in NNW 9.7 mph 9.7 mph 81 % 0.0 in
01:17 13.2 °F 10.0 °F 1025.6 in North 5.6 mph 5.6 mph 81 % 0.0 in
01:22 13.2 °F 9.8 °F 1025.3 in North 9.3 mph 9.3 mph 80 % 0.0 in
01:24 13.2 °F 9.8 °F 1025.3 in North 9.7 mph 9.7 mph 80 % 0.0 in
01:25 13.2 °F 9.8 °F 1025.3 in North 8.0 mph 9.7 mph 80 % 0.0 in
01:30 13.1 °F 9.7 °F 1025.3 in NNW 8.0 mph 8.0 mph 80 % 0.0 in
01:31 13.0 °F 9.6 °F 1025.3 in North 9.3 mph 9.3 mph 80 % 0.0 in
01:36 12.9 °F 9.7 °F 1025.3 in NNW 9.3 mph 9.3 mph 81 % 0.0 in
01:40 12.8 °F 9.7 °F 1025.6 in North 9.7 mph 9.7 mph 81 % 0.0 in
01:43 12.8 °F 9.6 °F 1025.6 in NNW 9.3 mph 9.3 mph 81 % 0.0 in
01:45 12.8 °F 9.6 °F 1025.6 in NNW 9.3 mph 9.3 mph 81 % 0.0 in
01:49 12.8 °F 9.6 °F 1025.3 in NNW 9.3 mph 9.3 mph 81 % 0.0 in
01:51 12.8 °F 9.7 °F 1025.3 in North 7.4 mph 7.4 mph 81 % 0.0 in
01:54 12.8 °F 9.6 °F 1025.3 in NNW 11.1 mph 11.1 mph 81 % 0.0 in
01:56 12.8 °F 9.6 °F 1025.3 in North 13.0 mph 13.0 mph 81 % 0.0 in
02:01 12.7 °F 9.6 °F 1025.3 in North 9.7 mph 9.7 mph 81 % 0.0 in
02:02 12.7 °F 9.6 °F 1025.3 in North 9.7 mph 9.7 mph 81 % 0.0 in
02:07 12.6 °F 9.4 °F 1025.3 in North 13.0 mph 13.0 mph 81 % 0.0 in
02:08 12.6 °F 9.4 °F 1025.3 in North 13.0 mph 13.0 mph 81 % 0.0 in
02:13 12.5 °F 9.5 °F 1025.3 in NNW 7.4 mph 7.4 mph 82 % 0.0 in
02:16 12.6 °F 9.6 °F 1025.3 in NNW 9.7 mph 9.7 mph 82 % 0.0 in
02:20 12.6 °F 9.6 °F 1025.3 in North 9.3 mph 9.3 mph 82 % 0.0 in
02:23 12.5 °F 9.5 °F 1025.3 in North 9.7 mph 9.7 mph 82 % 0.0 in
02:26 12.4 °F 9.4 °F 1025.3 in North 11.1 mph 11.1 mph 82 % 0.0 in
02:28 12.4 °F 9.4 °F 1025.3 in North 9.3 mph 9.3 mph 82 % 0.0 in
02:31 12.4 °F 9.4 °F 1025.3 in North 11.1 mph 11.1 mph 82 % 0.0 in
02:36 12.3 °F 9.3 °F 1025.3 in North 9.3 mph 9.3 mph 82 % 0.0 in
02:41 12.3 °F 9.3 °F 1025.3 in North 6.4 mph 6.4 mph 82 % 0.0 in
02:42 12.3 °F 9.3 °F 1025.3 in North 6.4 mph 6.4 mph 82 % 0.0 in
02:44 12.3 °F 9.3 °F 1025.3 in North 7.4 mph 7.4 mph 82 % 0.0 in
02:47 12.3 °F 9.3 °F 1025.3 in North 8.0 mph 8.0 mph 82 % 0.0 in
02:52 12.3 °F 9.3 °F 1025.3 in North 7.4 mph 7.4 mph 82 % 0.0 in
02:53 12.3 °F 9.3 °F 1025.3 in North 9.3 mph 9.3 mph 82 % 0.0 in
02:54 12.3 °F 9.3 °F 1025.3 in North 9.3 mph 9.3 mph 82 % 0.0 in
02:59 12.3 °F 9.3 °F 1025.3 in NNW 9.3 mph 9.3 mph 82 % 0.0 in
03:04 12.3 °F 9.3 °F 1025.3 in NNW 9.3 mph 9.3 mph 82 % 0.0 in
03:05 12.3 °F 9.3 °F 1025.3 in NNW 11.1 mph 11.1 mph 82 % 0.0 in
03:10 12.3 °F 9.3 °F 1025.3 in NW 7.4 mph 7.4 mph 82 % 0.0 in
03:11 12.3 °F 9.3 °F 1025.3 in NW 7.4 mph 7.4 mph 82 % 0.0 in
03:15 12.4 °F 9.4 °F 1025.3 in NW 7.4 mph 7.4 mph 82 % 0.0 in
03:17 12.4 °F 9.4 °F 1025.3 in NNW 7.4 mph 7.4 mph 82 % 0.0 in
03:22 12.6 °F 9.6 °F 1025.3 in NNW 5.6 mph 5.6 mph 82 % 0.0 in
03:24 12.6 °F 9.6 °F 1025.3 in NNW 3.7 mph   82 % 0.0 in
03:26 12.6 °F 9.6 °F 1025.3 in Calm     82 % 0.0 in
03:29 12.5 °F 9.5 °F 1025.3 in NNW 6.4 mph 6.4 mph 82 % 0.0 in
03:34 12.4 °F 9.4 °F 1024.9 in North 7.4 mph 7.4 mph 82 % 0.0 in
03:35 12.4 °F 9.4 °F 1025.3 in North 7.4 mph 7.4 mph 82 % 0.0 in
03:40 12.3 °F 9.3 °F 1024.9 in North 9.7 mph 11.3 mph 82 % 0.0 in
03:41 12.3 °F 9.3 °F 1024.9 in North 11.1 mph 11.1 mph 82 % 0.0 in
03:46 12.2 °F 9.2 °F 1024.9 in NNW 9.3 mph 9.3 mph 82 % 0.0 in
03:51 12.1 °F 9.1 °F 1024.9 in NNW 11.1 mph 11.1 mph 82 % 0.0 in
03:56 12.0 °F 9.2 °F 1024.9 in NNW 7.4 mph 7.4 mph 83 % 0.0 in
03:57 12.0 °F 9.2 °F 1024.6 in North 11.1 mph 11.1 mph 83 % 0.0 in
03:58 12.0 °F 9.2 °F 1024.6 in North 11.1 mph 11.1 mph 83 % 0.0 in
04:03 11.9 °F 9.2 °F 1024.6 in North 11.1 mph 11.1 mph 83 % 0.0 in
04:07 12.0 °F 9.2 °F 1024.6 in North 11.1 mph 11.1 mph 83 % 0.0 in
04:08 12.0 °F 9.2 °F 1024.6 in North 9.3 mph 9.3 mph 83 % 0.0 in
04:14 12.1 °F 9.3 °F 1024.6 in North 7.4 mph 7.4 mph 83 % 0.0 in
04:21 12.1 °F 9.3 °F 1024.6 in NNW 9.3 mph 9.3 mph 83 % 0.0 in
04:24 12.1 °F 9.3 °F 1024.6 in NNW 9.3 mph 9.3 mph 83 % 0.0 in
04:29 12.2 °F 9.4 °F 1024.6 in NNW 9.3 mph 9.3 mph 83 % 0.0 in
04:34 12.2 °F 9.4 °F 1024.6 in Calm     83 % 0.0 in
04:36 12.2 °F 9.4 °F 1024.6 in Calm   0.2 mph 83 % 0.0 in
04:37 12.2 °F 9.4 °F 1024.6 in NNW 1.9 mph   83 % 0.0 in
04:42 12.2 °F 9.4 °F 1024.6 in NNW 3.7 mph 3.7 mph 83 % 0.0 in
04:43 12.2 °F 9.4 °F 1024.6 in NNW 3.7 mph 3.7 mph 83 % 0.0 in
04:44 12.2 °F 9.2 °F 1024.6 in NNW 3.7 mph 3.7 mph 82 % 0.0 in
04:49 12.2 °F 9.2 °F 1024.6 in NNW 5.6 mph 5.6 mph 82 % 0.0 in
04:50 12.2 °F 9.2 °F 1024.6 in NNW 5.6 mph 5.6 mph 82 % 0.0 in
04:54 12.2 °F 9.2 °F 1024.3 in NNW 11.1 mph 11.1 mph 82 % 0.0 in
04:59 12.2 °F 9.2 °F 1024.3 in NNW 9.3 mph 9.3 mph 82 % 0.0 in
05:01 12.2 °F 9.2 °F 1024.3 in North 9.7 mph 9.7 mph 82 % 0.0 in
05:05 12.2 °F 9.2 °F 1024.3 in NNW 7.4 mph 7.4 mph 82 % 0.0 in
05:06 12.2 °F 9.2 °F 1024.3 in North 7.4 mph 7.4 mph 82 % 0.0 in
05:11 12.2 °F 9.2 °F 1024.3 in North 7.4 mph 7.4 mph 82 % 0.0 in
05:14 12.2 °F 9.2 °F 1023.9 in NNW 7.4 mph 7.4 mph 82 % 0.0 in
05:16 12.2 °F 9.2 °F 1024.3 in North 7.4 mph 7.4 mph 82 % 0.0 in
05:20 12.1 °F 9.1 °F 1024.3 in North 9.3 mph 9.3 mph 82 % 0.0 in
05:25 11.9 °F 8.9 °F 1023.9 in North 11.1 mph 11.1 mph 82 % 0.0 in
05:28 11.9 °F 8.9 °F 1024.3 in North 11.3 mph 11.3 mph 82 % 0.0 in
05:33 11.8 °F 8.8 °F 1024.3 in North 11.1 mph 11.1 mph 82 % 0.0 in
05:34 11.8 °F 8.8 °F 1024.3 in North 11.1 mph 11.1 mph 82 % 0.0 in
05:39 11.8 °F 8.8 °F 1024.3 in North 11.1 mph 11.1 mph 82 % 0.0 in
05:42 11.8 °F 8.8 °F 1024.3 in NNW 9.7 mph 9.7 mph 82 % 0.0 in
05:45 11.8 °F 9.0 °F 1024.3 in North 9.3 mph 9.3 mph 83 % 0.0 in
05:50 11.8 °F 8.8 °F 1024.3 in North 7.4 mph 7.4 mph 82 % 0.0 in
05:51 11.8 °F 8.8 °F 1024.3 in North 7.4 mph 7.4 mph 82 % 0.0 in
05:56 11.8 °F 9.1 °F 1024.3 in North 5.6 mph 5.6 mph 83 % 0.0 in
05:57 11.9 °F 9.1 °F 1024.3 in North 6.4 mph 6.4 mph 83 % 0.0 in
06:02 11.8 °F 9.1 °F 1024.3 in North 6.4 mph 6.4 mph 83 % 0.0 in
06:06 11.9 °F 9.1 °F 1024.3 in North 9.3 mph 9.3 mph 83 % 0.0 in
06:11 11.8 °F 9.1 °F 1024.3 in North 9.3 mph 9.3 mph 83 % 0.0 in
06:12 11.8 °F 9.1 °F 1024.3 in North 7.4 mph 7.4 mph 83 % 0.0 in
06:13 11.8 °F 9.1 °F 1024.3 in North 8.0 mph 8.0 mph 83 % 0.0 in
06:18 11.7 °F 8.7 °F 1024.3 in North 7.4 mph 7.4 mph 82 % 0.0 in
06:19 11.7 °F 8.7 °F 1024.3 in North 9.3 mph 9.3 mph 82 % 0.0 in
06:23 11.6 °F 8.8 °F 1024.3 in North 9.3 mph 9.3 mph 83 % 0.0 in
06:25 11.5 °F 8.7 °F 1024.3 in North 9.3 mph 9.3 mph 83 % 0.0 in
06:28 11.5 °F 8.7 °F 1024.3 in North 9.3 mph 9.3 mph 83 % 0.0 in
06:33 11.5 °F 8.7 °F 1024.3 in North 11.3 mph 11.3 mph 83 % 0.0 in
06:37 11.4 °F 8.7 °F 1024.3 in NNW 13.0 mph 13.0 mph 83 % 0.0 in
06:38 11.4 °F 8.7 °F 1024.3 in NNW 13.0 mph 13.0 mph 83 % 0.0 in
06:43 11.4 °F 8.7 °F 1024.3 in NNW 5.6 mph 5.6 mph 83 % 0.0 in
06:44 11.4 °F 8.7 °F 1024.3 in NNW 6.4 mph 6.4 mph 83 % 0.0 in
06:49 11.5 °F 8.7 °F 1024.3 in North 6.4 mph 6.4 mph 83 % 0.0 in
06:54 11.5 °F 8.7 °F 1024.3 in NNW 5.6 mph 5.6 mph 83 % 0.0 in
06:55 11.5 °F 8.7 °F 1024.3 in North 5.6 mph 5.6 mph 83 % 0.0 in
07:00 11.4 °F 8.7 °F 1024.3 in NNW 7.4 mph 7.7 mph 83 % 0.0 in
07:01 11.4 °F 8.7 °F 1024.3 in North 9.3 mph 9.3 mph 83 % 0.0 in
07:06 11.5 °F 8.7 °F 1024.6 in NNW 5.6 mph 5.6 mph 83 % 0.0 in
07:08 11.5 °F 8.7 °F 1024.6 in North 8.0 mph 8.0 mph 83 % 0.0 in
07:11 11.6 °F 8.8 °F 1024.6 in North 9.7 mph 9.7 mph 83 % 0.0 in
07:14 11.6 °F 8.8 °F 1024.6 in North 13.0 mph 13.0 mph 83 % 0.0 in
07:17 11.5 °F 8.6 °F 1024.3 in North 13.0 mph 13.0 mph 82 % 0.0 in
07:21 11.5 °F 8.6 °F 1024.6 in North 11.1 mph 11.1 mph 82 % 0.0 in
07:26 11.4 °F 8.5 °F 1024.6 in North 11.3 mph 11.3 mph 82 % 0.0 in
07:28 11.4 °F 8.5 °F 1024.6 in North 11.1 mph 11.1 mph 82 % 0.0 in
07:33 11.4 °F 8.5 °F 1024.6 in North 11.1 mph 11.1 mph 82 % 0.0 in
07:35 11.4 °F 8.5 °F 1024.6 in North 11.1 mph 11.1 mph 82 % 0.0 in
07:37 11.5 °F 8.6 °F 1024.6 in NNW 9.3 mph 9.3 mph 82 % 0.0 in
07:40 11.6 °F 8.6 °F 1024.6 in NNW 9.3 mph 9.3 mph 82 % 0.0 in
07:45 11.7 °F 8.6 °F 1024.6 in North 7.4 mph 7.4 mph 81 % 0.0 in
07:46 11.8 °F 8.6 °F 1024.6 in NNW 8.0 mph 8.0 mph 81 % 0.0 in
07:48 11.8 °F 8.7 °F 1024.6 in North 9.3 mph 9.3 mph 81 % 0.0 in
07:52 11.9 °F 8.6 °F 1024.6 in North 9.7 mph 9.7 mph 80 % 0.0 in
07:56 11.8 °F 8.4 °F 1024.6 in NNW 13.0 mph 13.0 mph 80 % 0.0 in
07:57 11.7 °F 8.4 °F 1024.6 in NNW 11.1 mph 11.1 mph 80 % 0.0 in
08:02 11.7 °F 8.4 °F 1024.6 in North 14.8 mph 14.8 mph 80 % 0.0 in
08:07 11.7 °F 8.4 °F 1024.9 in NNW 9.3 mph 9.3 mph 80 % 0.0 in
08:12 11.7 °F 8.4 °F 1024.6 in NNW 5.6 mph 5.6 mph 80 % 0.0 in
08:13 11.8 °F 8.4 °F 1024.6 in NNW 6.4 mph 6.4 mph 80 % 0.0 in
08:16 11.8 °F 8.4 °F 1024.6 in North 8.0 mph 8.0 mph 80 % 0.0 in
08:21 11.8 °F 8.4 °F 1024.6 in NNW 6.4 mph 6.4 mph 80 % 0.0 in
08:23 11.8 °F 8.7 °F 1024.6 in North 6.4 mph 6.4 mph 81 % 0.0 in
08:28 11.8 °F 8.7 °F 1024.9 in NNW 5.6 mph 5.6 mph 81 % 0.0 in
08:29 11.8 °F 8.7 °F 1024.9 in NNW 5.6 mph 5.6 mph 81 % 0.0 in
08:34 12.0 °F 8.8 °F 1024.9 in North 7.4 mph 7.4 mph 81 % 0.0 in
08:36 12.1 °F 8.9 °F 1024.9 in North 7.4 mph 7.4 mph 81 % 0.0 in
08:40 12.1 °F 8.7 °F 1024.9 in North 9.3 mph 9.3 mph 80 % 0.0 in
08:43 12.1 °F 8.7 °F 1024.9 in NNW 9.3 mph 9.3 mph 80 % 0.0 in
08:45 12.1 °F 8.7 °F 1024.9 in NNW 7.4 mph 7.4 mph 80 % 0.0 in
08:51 12.1 °F 8.7 °F 1024.9 in NNW 5.6 mph 5.6 mph 80 % 0.0 in
08:52 12.1 °F 8.8 °F 1024.9 in NNW 5.6 mph 5.6 mph 80 % 0.0 in
08:57 12.3 °F 8.9 °F 1024.9 in NW 11.1 mph 11.1 mph 80 % 0.0 in
09:02 12.4 °F 8.9 °F 1025.3 in NW 5.6 mph 5.6 mph 79 % 0.0 in
09:03 12.5 °F 8.9 °F 1025.3 in NW 7.4 mph 7.4 mph 79 % 0.0 in
09:08 12.6 °F 9.0 °F 1025.3 in NNW 6.4 mph 6.4 mph 79 % 0.0 in
09:13 12.4 °F 8.7 °F 1025.3 in North 9.7 mph 9.7 mph 78 % 0.0 in
09:14 12.4 °F 8.5 °F 1025.3 in North 9.7 mph 9.7 mph 77 % 0.0 in
09:19 12.2 °F 8.3 °F 1025.3 in NNW 9.3 mph 9.3 mph 77 % 0.0 in
09:24 12.1 °F 8.2 °F 1025.3 in NNW 9.7 mph 9.7 mph 77 % 0.0 in
09:28 12.1 °F 8.4 °F 1025.3 in NNW 7.4 mph 7.4 mph 78 % 0.0 in
09:30 12.2 °F 8.4 °F 1025.3 in North 8.0 mph 8.0 mph 78 % 0.0 in
09:35 12.3 °F 8.6 °F 1025.3 in North 6.4 mph 6.4 mph 78 % 0.0 in
09:36 12.3 °F 8.6 °F 1025.3 in North 8.0 mph 8.0 mph 78 % 0.0 in
09:40 12.3 °F 8.4 °F 1025.3 in North 8.0 mph 11.3 mph 77 % 0.0 in
09:41 12.3 °F 8.4 °F 1025.3 in North 9.3 mph 9.3 mph 77 % 0.0 in
09:44 12.3 °F 8.4 °F 1025.3 in North 9.3 mph 9.3 mph 77 % 0.0 in
09:47 12.3 °F 8.4 °F 1025.3 in North 7.4 mph 7.4 mph 77 % 0.0 in
09:51 12.3 °F 8.4 °F 1025.3 in North 9.3 mph 9.3 mph 77 % 0.0 in
09:52 12.4 °F 8.4 °F 1025.6 in North 9.3 mph 9.3 mph 77 % 0.0 in
09:57 12.4 °F 8.5 °F 1025.6 in North 5.6 mph 5.6 mph 77 % 0.0 in
09:58 12.4 °F 8.5 °F 1025.6 in North 5.6 mph 5.6 mph 77 % 0.0 in
10:03 12.6 °F 8.6 °F 1025.6 in North 5.6 mph 5.6 mph 77 % 0.0 in
10:04 12.6 °F 8.7 °F 1025.6 in North 5.6 mph 5.6 mph 77 % 0.0 in
10:09 12.7 °F 8.6 °F 1025.6 in North 7.4 mph 7.4 mph 76 % 0.0 in
10:10 12.8 °F 8.7 °F 1025.6 in North 8.0 mph 8.0 mph 76 % 0.0 in
10:14 12.8 °F 8.7 °F 1025.6 in North 9.3 mph 9.3 mph 76 % 0.0 in
10:19 12.7 °F 8.6 °F 1025.6 in NNE 8.0 mph 8.0 mph 76 % 0.0 in
10:23 12.8 °F 8.7 °F 1026.0 in NNE 11.1 mph 11.1 mph 76 % 0.0 in
10:27 13.1 °F 9.1 °F 1026.0 in NNE 11.1 mph 11.1 mph 77 % 0.0 in
10:32 13.3 °F 9.1 °F 1026.0 in North 13.0 mph 13.0 mph 76 % 0.0 in
10:34 13.3 °F 9.2 °F 1026.0 in NNE 9.3 mph 9.3 mph 76 % 0.0 in
10:39 13.4 °F 9.3 °F 1026.0 in North 7.4 mph 7.4 mph 76 % 0.0 in
10:40 13.4 °F 9.3 °F 1026.0 in North 8.0 mph 8.0 mph 76 % 0.0 in
10:41 13.4 °F 9.3 °F 1026.0 in North 7.4 mph 7.4 mph 76 % 0.0 in
10:46 13.6 °F 9.4 °F 1026.0 in NNE 11.1 mph 11.1 mph 76 % 0.0 in
10:48 13.6 °F 9.4 °F 1026.0 in NNE 7.4 mph 7.4 mph 76 % 0.0 in
10:51 13.7 °F 9.5 °F 1026.0 in North 5.6 mph 5.6 mph 76 % 0.0 in
10:55 13.8 °F 9.6 °F 1026.3 in NNW 9.3 mph 9.3 mph 76 % 0.0 in
10:57 13.8 °F 9.6 °F 1026.3 in NNW 9.3 mph 9.3 mph 76 % 0.0 in
11:02 13.9 °F 9.8 °F 1026.0 in North 11.1 mph 11.1 mph 76 % 0.0 in
11:07 14.2 °F 10.0 °F 1026.3 in North 3.7 mph 3.7 mph 76 % 0.0 in
11:08 14.2 °F 10.0 °F 1026.3 in North 5.6 mph 5.6 mph 76 % 0.0 in
11:13 14.4 °F 10.2 °F 1026.3 in North 5.6 mph 5.6 mph 76 % 0.0 in
11:14 14.4 °F 10.3 °F 1026.3 in North 5.6 mph 5.6 mph 76 % 0.0 in
11:19 14.6 °F 10.0 °F 1026.3 in North 7.4 mph 7.4 mph 74 % 0.0 in
11:20 14.6 °F 10.0 °F 1026.3 in North 7.4 mph 7.4 mph 74 % 0.0 in
11:25 14.8 °F 10.0 °F 1026.3 in North 5.6 mph 5.6 mph 73 % 0.0 in
11:26 14.8 °F 10.0 °F 1026.3 in North 5.6 mph 5.6 mph 73 % 0.0 in
11:27 14.8 °F 10.1 °F 1026.3 in NNE 5.6 mph 5.6 mph 73 % 0.0 in
11:32 15.1 °F 10.3 °F 1026.0 in NE 5.6 mph 5.6 mph 73 % 0.0 in
11:34 15.1 °F 10.3 °F 1026.0 in NE 5.6 mph 5.6 mph 73 % 0.0 in
11:37 15.2 °F 10.6 °F 1026.3 in NE 5.6 mph 5.6 mph 74 % 0.0 in
11:39 15.3 °F 10.9 °F 1026.3 in NE 6.4 mph 6.4 mph 75 % 0.0 in
11:43 15.4 °F 11.2 °F 1026.3 in NE 9.3 mph 9.3 mph 76 % 0.0 in
11:44 15.5 °F 11.3 °F 1026.3 in NE 9.3 mph 9.3 mph 76 % 0.0 in
11:49 15.7 °F 11.7 °F 1026.3 in NE 9.7 mph 9.7 mph 77 % 0.0 in
11:54 15.9 °F 11.7 °F 1026.3 in NNE 5.6 mph 5.6 mph 76 % 0.0 in
11:59 16.1 °F 11.8 °F 1026.3 in NNE 1.9 mph 1.9 mph 76 % 0.0 in
12:04 16.2 °F 12.0 °F 1026.3 in NNE 3.7 mph 3.7 mph 76 % 0.0 in
12:05 16.3 °F 12.1 °F 1026.3 in WSW 6.4 mph 6.4 mph 76 % 0.0 in
12:10 16.6 °F 12.5 °F 1026.0 in NE 11.3 mph 11.3 mph 77 % 0.0 in
12:14 16.7 °F 12.4 °F 1026.3 in West 8.0 mph 8.0 mph 76 % 0.0 in
12:15 16.7 °F 12.4 °F 1026.3 in West 3.2 mph 17.7 mph 76 % 0.0 in
12:20 16.8 °F 12.7 °F 1026.3 in WNW 13.0 mph 13.0 mph 77 % 0.0 in
12:21 16.8 °F 12.7 °F 1026.3 in West 13.0 mph 13.0 mph 77 % 0.0 in
12:26 16.9 °F 12.6 °F 1026.0 in WNW 9.3 mph 9.3 mph 76 % 0.0 in
12:28 16.9 °F 12.7 °F 1026.0 in West 9.3 mph 9.3 mph 76 % 0.0 in
12:31 17.1 °F 12.6 °F 1026.3 in WNW 7.4 mph 7.4 mph 75 % 0.0 in
12:36 17.3 °F 12.8 °F 1026.3 in WSW 11.1 mph 11.1 mph 75 % 0.0 in
12:38 17.3 °F 12.7 °F 1026.3 in West 9.3 mph 9.3 mph 74 % 0.0 in
12:42 17.3 °F 12.7 °F 1026.0 in WSW 20.4 mph 20.4 mph 74 % 0.0 in
12:45 17.3 °F 12.8 °F 1026.0 in WSW 25.9 mph 25.9 mph 75 % 0.0 in
12:48 17.2 °F 12.9 °F 1026.0 in West 18.5 mph 18.5 mph 76 % 0.0 in
12:53 17.1 °F 12.4 °F 1025.6 in WSW 25.9 mph 25.9 mph 74 % 0.0 in
12:54 17.1 °F 12.4 °F 1025.6 in WSW 25.9 mph 25.9 mph 74 % 0.0 in
12:59 17.2 °F 12.1 °F 1025.6 in WSW 25.9 mph 25.9 mph 72 % 0.0 in
13:04 17.4 °F 11.9 °F 1025.6 in West 29.6 mph 29.6 mph 70 % 0.0 in
13:07 17.6 °F 11.8 °F 1025.3 in WSW 31.5 mph 31.5 mph 69 % 0.0 in
13:12 17.6 °F 12.0 °F 1025.3 in SW 31.5 mph 31.5 mph 70 % 0.0 in
13:13 17.6 °F 12.0 °F 1025.3 in WSW 29.6 mph 29.6 mph 70 % 0.0 in
13:14 17.6 °F 12.2 °F 1025.3 in WSW 27.8 mph 27.8 mph 71 % 0.0 in
13:19 17.4 °F 12.1 °F 1025.3 in WSW 24.1 mph 24.1 mph 71 % 0.0 in
13:20 17.4 °F 11.9 °F 1025.3 in WSW 24.1 mph 24.1 mph 70 % 0.0 in
13:25 17.8 °F 11.3 °F 1025.3 in West 31.5 mph 31.5 mph 66 % 0.0 in
13:30 18.3 °F 11.2 °F 1025.3 in West 27.8 mph 27.8 mph 63 % 0.0 in
13:31 18.4 °F 11.2 °F 1024.9 in West 25.9 mph 25.9 mph 63 % 0.0 in
13:33 18.5 °F 11.3 °F 1025.3 in WSW 18.5 mph 18.5 mph 63 % 0.0 in
13:37 18.7 °F 10.7 °F 1024.9 in West 22.2 mph 22.2 mph 60 % 0.0 in
13:39 18.8 °F 10.8 °F 1024.9 in West 27.8 mph 27.8 mph 60 % 0.0 in
13:43 19.0 °F 10.8 °F 1024.9 in WNW 25.9 mph 25.9 mph 59 % 0.0 in
13:45 19.0 °F 10.8 °F 1024.9 in WNW 25.9 mph 25.9 mph 59 % 0.0 in
13:50 19.1 °F 10.7 °F 1024.9 in West 22.2 mph 22.2 mph 58 % 0.0 in
13:55 19.2 °F 10.4 °F 1024.9 in WNW 29.6 mph 29.6 mph 57 % 0.0 in
13:56 19.2 °F 10.4 °F 1024.9 in NW 25.9 mph 25.9 mph 57 % 0.0 in
14:01 19.2 °F 10.5 °F 1024.9 in NW 11.1 mph 11.1 mph 57 % 0.0 in
14:02 19.2 °F 10.5 °F 1024.9 in NW 11.1 mph 11.1 mph 57 % 0.0 in
14:07 19.3 °F 10.3 °F 1024.9 in WNW 25.9 mph 25.9 mph 56 % 0.0 in
14:08 19.4 °F 10.4 °F 1024.9 in West 18.5 mph 18.5 mph 56 % 0.0 in
14:14 19.4 °F 10.2 °F 1024.9 in West 25.9 mph 25.9 mph 55 % 0.0 in
14:18 19.4 °F 10.2 °F 1024.9 in West 25.7 mph 25.7 mph 55 % 0.0 in
14:23 19.4 °F 10.2 °F 1024.9 in West 29.6 mph 29.6 mph 55 % 0.0 in
14:24 19.4 °F 9.9 °F 1024.9 in West 29.6 mph 29.6 mph 54 % 0.0 in
14:27 19.4 °F 10.2 °F 1024.9 in West 31.5 mph 31.5 mph 55 % 0.0 in
14:30 19.4 °F 10.2 °F 1025.3 in West 24.1 mph 24.1 mph 55 % 0.0 in
14:35 19.4 °F 9.9 °F 1024.9 in WNW 16.7 mph 16.7 mph 54 % 0.0 in
14:38 19.4 °F 9.9 °F 1024.9 in WNW 18.5 mph 18.5 mph 54 % 0.0 in
14:40 19.5 °F 9.9 °F 1024.9 in West 22.2 mph 22.2 mph 54 % 0.0 in
14:45 19.4 °F 10.2 °F 1025.3 in West 19.3 mph 19.3 mph 55 % 0.0 in
14:50 19.4 °F 10.1 °F 1024.9 in West 11.3 mph 11.3 mph 55 % 0.0 in
14:55 19.4 °F 10.2 °F 1024.9 in West 20.4 mph 20.4 mph 55 % 0.0 in
14:56 19.4 °F 10.2 °F 1024.9 in WNW 20.4 mph 20.4 mph 55 % 0.0 in
15:01 19.4 °F 10.1 °F 1024.9 in WNW 18.5 mph 18.5 mph 55 % 0.0 in
15:07 19.4 °F 10.1 °F 1024.9 in West 14.8 mph 14.8 mph 55 % 0.0 in
15:11 19.4 °F 10.4 °F 1025.3 in West 11.3 mph 11.3 mph 56 % 0.0 in
15:12 19.4 °F 10.4 °F 1025.3 in West 14.5 mph 14.5 mph 56 % 0.0 in
15:17 19.3 °F 10.6 °F 1025.3 in WSW 13.0 mph 13.0 mph 57 % 0.0 in
15:21 19.0 °F 11.1 °F 1025.3 in West 18.5 mph 18.5 mph 60 % 0.0 in
15:22 19.0 °F 11.1 °F 1025.3 in WSW 18.5 mph 18.5 mph 60 % 0.0 in
15:27 18.8 °F 10.9 °F 1024.9 in WSW 16.7 mph 16.7 mph 60 % 0.0 in
15:29 18.8 °F 11.2 °F 1024.9 in West 16.7 mph 16.7 mph 61 % 0.0 in
15:34 18.8 °F 10.6 °F 1024.9 in WNW 6.4 mph 6.8 mph 59 % 0.0 in
15:35 18.8 °F 10.4 °F 1024.9 in WNW 11.1 mph 11.1 mph 58 % 0.0 in
15:40 19.1 °F 10.3 °F 1024.9 in WNW 13.0 mph 13.0 mph 57 % 0.0 in
15:41 19.1 °F 10.3 °F 1024.9 in WNW 13.0 mph 13.0 mph 57 % 0.0 in
15:42 19.2 °F 10.2 °F 1024.9 in WNW 13.0 mph 13.0 mph 56 % 0.0 in
15:47 19.3 °F 10.1 °F 1024.9 in NW 13.0 mph 13.0 mph 55 % 0.0 in
15:49 19.4 °F 10.1 °F 1024.9 in NW 14.8 mph 14.8 mph 55 % 0.0 in
15:50 19.4 °F 10.1 °F 1024.9 in WNW 14.8 mph 14.8 mph 55 % 0.0 in
15:55 19.5 °F 10.2 °F 1024.9 in West 14.8 mph 14.8 mph 55 % 0.0 in
15:56 19.5 °F 10.2 °F 1024.9 in West 14.8 mph 14.8 mph 55 % 0.0 in
16:00 19.5 °F 10.5 °F 1024.9 in West 16.7 mph 16.7 mph 56 % 0.0 in
16:01 19.5 °F 10.5 °F 1024.9 in West 16.7 mph 16.7 mph 56 % 0.0 in
16:02 19.5 °F 10.5 °F 1024.9 in WNW 13.0 mph 13.0 mph 56 % 0.0 in
16:07 19.4 °F 10.4 °F 1024.9 in West 11.3 mph 11.3 mph 56 % 0.0 in
16:08 19.4 °F 10.4 °F 1025.3 in West 12.9 mph 12.9 mph 56 % 0.0 in
16:09 19.4 °F 10.4 °F 1025.3 in WNW 14.8 mph 14.8 mph 56 % 0.0 in
16:13 19.4 °F 10.4 °F 1025.3 in NW 12.9 mph 12.9 mph 56 % 0.0 in
16:18 19.4 °F 10.2 °F 1025.3 in West 20.4 mph 20.4 mph 55 % 0.0 in
16:20 19.4 °F 10.2 °F 1025.3 in West 19.3 mph 19.3 mph 55 % 0.0 in
16:24 19.5 °F 10.5 °F 1025.3 in West 24.1 mph 24.1 mph 56 % 0.0 in
16:26 19.6 °F 10.3 °F 1025.3 in WNW 24.1 mph 24.1 mph 55 % 0.0 in
16:29 19.6 °F 10.6 °F 1025.3 in West 20.4 mph 20.4 mph 56 % 0.0 in
16:34 19.7 °F 10.7 °F 1025.3 in West 29.6 mph 29.6 mph 56 % 0.0 in
16:39 19.7 °F 10.9 °F 1025.3 in West 22.2 mph 22.2 mph 57 % 0.0 in
16:40 19.8 °F 11.0 °F 1025.3 in WNW 22.2 mph 22.2 mph 57 % 0.0 in
16:45 19.7 °F 10.9 °F 1025.3 in West 22.2 mph 22.2 mph 57 % 0.0 in
16:50 19.6 °F 11.1 °F 1025.6 in West 22.5 mph 22.5 mph 58 % 0.0 in
16:53 19.4 °F 10.9 °F 1025.3 in WSW 29.6 mph 29.6 mph 58 % 0.0 in
16:58 19.3 °F 11.1 °F 1025.3 in West 27.8 mph 27.8 mph 59 % 0.0 in
16:59 19.3 °F 11.1 °F 1025.3 in West 27.8 mph 27.8 mph 59 % 0.0 in
17:01 19.2 °F 11.0 °F 1025.3 in West 27.8 mph 27.8 mph 59 % 0.0 in
17:06 19.1 °F 11.2 °F 1025.3 in West 31.5 mph 31.5 mph 60 % 0.0 in
17:07 19.1 °F 11.2 °F 1025.3 in West 24.1 mph 24.1 mph 60 % 0.0 in
17:12 19.0 °F 11.1 °F 1025.3 in West 31.5 mph 31.5 mph 60 % 0.0 in
17:13 19.0 °F 11.1 °F 1025.3 in WNW 31.5 mph 31.5 mph 60 % 0.0 in
17:14 19.0 °F 11.1 °F 1025.3 in West 27.8 mph 27.8 mph 60 % 0.0 in
17:19 18.9 °F 11.3 °F 1024.9 in West 20.4 mph 20.4 mph 61 % 0.0 in
17:24 18.9 °F 11.2 °F 1025.3 in WNW 29.6 mph 29.6 mph 61 % 0.0 in
17:25 18.9 °F 11.2 °F 1025.3 in WNW 29.6 mph 29.6 mph 61 % 0.0 in
17:30 18.8 °F 10.9 °F 1025.3 in West 31.5 mph 31.5 mph 60 % 0.0 in
17:31 18.9 °F 10.9 °F 1025.3 in West 31.5 mph 31.5 mph 60 % 0.0 in
17:36 18.9 °F 10.9 °F 1025.3 in West 27.8 mph 27.8 mph 60 % 0.0 in
17:41 18.8 °F 10.9 °F 1025.6 in West 25.9 mph 25.9 mph 60 % 0.0 in
17:42 18.8 °F 10.9 °F 1025.6 in West 25.9 mph 25.9 mph 60 % 0.0 in
17:44 18.8 °F 10.8 °F 1025.6 in West 25.9 mph 25.9 mph 60 % 0.0 in
17:47 18.8 °F 10.6 °F 1025.6 in WNW 31.5 mph 31.5 mph 59 % 0.0 in
17:52 18.8 °F 10.9 °F 1025.6 in West 20.4 mph 20.4 mph 60 % 0.0 in
17:57 18.8 °F 10.6 °F 1026.0 in West 27.8 mph 27.8 mph 59 % 0.0 in
17:58 18.8 °F 10.6 °F 1026.0 in West 27.8 mph 27.8 mph 59 % 0.0 in
18:03 18.8 °F 10.8 °F 1025.6 in WSW 24.1 mph 24.1 mph 60 % 0.0 in
18:04 18.8 °F 10.8 °F 1026.0 in West 24.1 mph 24.1 mph 60 % 0.0 in
18:09 18.7 °F 10.7 °F 1026.0 in West 27.8 mph 27.8 mph 60 % 0.0 in
18:10 18.7 °F 10.7 °F 1026.0 in West 25.7 mph 25.7 mph 60 % 0.0 in
18:14 18.7 °F 10.7 °F 1026.0 in West 30.6 mph 30.6 mph 60 % 0.0 in
18:16 18.6 °F 10.7 °F 1026.0 in West 31.5 mph 31.5 mph 60 % 0.0 in
18:21 18.6 °F 10.9 °F 1026.0 in West 25.7 mph 25.7 mph 61 % 0.0 in
18:24 18.4 °F 10.8 °F 1026.0 in West 24.1 mph 24.1 mph 61 % 0.0 in
18:27 18.4 °F 10.7 °F 1026.0 in West 30.6 mph 30.6 mph 61 % 0.0 in
18:29 18.4 °F 11.0 °F 1026.3 in WSW 31.5 mph 31.5 mph 62 % 0.0 in
18:34 18.4 °F 11.0 °F 1026.3 in West 27.8 mph 27.8 mph 62 % 0.0 in
18:37 18.3 °F 10.9 °F 1026.3 in West 20.9 mph 20.9 mph 62 % 0.0 in
18:42 18.3 °F 10.9 °F 1026.3 in West 25.9 mph 25.9 mph 62 % 0.0 in
18:43 18.2 °F 10.8 °F 1026.3 in WSW 27.8 mph 27.8 mph 62 % 0.0 in
18:48 18.2 °F 10.8 °F 1026.3 in WSW 29.6 mph 29.6 mph 62 % 0.0 in
18:51 18.2 °F 10.8 °F 1026.6 in West 29.6 mph 29.6 mph 62 % 0.0 in
18:53 18.2 °F 11.0 °F 1026.6 in West 29.6 mph 29.6 mph 63 % 0.0 in
18:58 18.1 °F 10.9 °F 1026.6 in West 18.5 mph 18.5 mph 63 % 0.0 in
18:59 18.1 °F 10.9 °F 1026.6 in WNW 18.5 mph 18.5 mph 63 % 0.0 in
19:04 18.0 °F 11.1 °F 1026.6 in WSW 29.6 mph 29.6 mph 64 % 0.0 in
19:05 18.0 °F 11.3 °F 1026.6 in WSW 27.8 mph 27.8 mph 65 % 0.0 in
19:07 17.9 °F 11.3 °F 1026.6 in WSW 31.5 mph 31.5 mph 65 % 0.0 in
19:12 17.9 °F 11.5 °F 1027.0 in WSW 31.5 mph 31.5 mph 66 % 0.0 in
19:16 17.9 °F 11.4 °F 1027.0 in WSW 20.9 mph 20.9 mph 66 % 0.0 in
19:18 17.9 °F 11.4 °F 1027.0 in WSW 24.1 mph 24.1 mph 66 % 0.0 in
19:22 17.8 °F 11.4 °F 1027.3 in SW 25.7 mph 25.7 mph 66 % 0.0 in
19:24 17.8 °F 11.6 °F 1027.3 in West 33.3 mph 33.3 mph 67 % 0.0 in
19:30 17.7 °F 11.7 °F 1027.3 in West 33.3 mph 33.3 mph 68 % 0.0 in
19:33 17.7 °F 11.9 °F 1027.3 in WSW 31.5 mph 31.5 mph 69 % 0.0 in
19:37 17.6 °F 11.8 °F 1027.3 in West 31.5 mph 31.5 mph 69 % 0.0 in
19:42 17.6 °F 12.0 °F 1027.7 in WSW 29.6 mph 29.6 mph 70 % 0.0 in
19:44 17.6 °F 12.0 °F 1027.7 in WSW 31.5 mph 31.5 mph 70 % 0.0 in
19:48 17.5 °F 11.9 °F 1027.7 in WSW 27.8 mph 27.8 mph 70 % 0.0 in
19:51 17.4 °F 12.1 °F 1027.7 in WSW 35.2 mph 35.2 mph 71 % 0.0 in
19:54 17.4 °F 12.1 °F 1028.0 in WSW 31.5 mph 31.5 mph 71 % 0.0 in
19:56 17.4 °F 12.1 °F 1028.0 in WSW 31.5 mph 31.5 mph 71 % 0.0 in
20:00 17.2 °F 12.1 °F 1027.7 in West 33.3 mph 33.3 mph 72 % 0.0 in
20:04 17.2 °F 12.1 °F 1028.0 in WSW 24.1 mph 24.1 mph 72 % 0.0 in
20:06 17.2 °F 12.3 °F 1028.0 in West 25.9 mph 25.9 mph 73 % 0.0 in
20:10 17.1 °F 12.2 °F 1028.0 in West 27.8 mph 27.8 mph 73 % 0.0 in
20:15 17.1 °F 12.4 °F 1028.0 in WSW 29.0 mph 29.0 mph 74 % 0.0 in
20:17 17.2 °F 12.5 °F 1028.0 in West 31.5 mph 31.5 mph 74 % 0.0 in
20:22 17.2 °F 12.6 °F 1028.3 in WSW 31.5 mph 31.5 mph 74 % 0.0 in
20:23 17.2 °F 12.3 °F 1028.3 in WSW 31.5 mph 31.5 mph 73 % 0.0 in
20:28 17.2 °F 12.3 °F 1028.3 in West 19.3 mph 19.3 mph 73 % 0.0 in
20:29 17.2 °F 12.3 °F 1028.7 in West 16.7 mph 16.7 mph 73 % 0.0 in
20:34 17.2 °F 12.3 °F 1028.7 in West 20.4 mph 20.4 mph 73 % 0.0 in
20:36 17.2 °F 12.3 °F 1028.7 in West 20.4 mph 20.4 mph 73 % 0.0 in
20:41 17.2 °F 12.3 °F 1028.7 in West 24.1 mph 24.1 mph 73 % 0.0 in
20:43 17.3 °F 12.4 °F 1028.7 in WSW 24.1 mph 24.1 mph 73 % 0.0 in
20:48 17.4 °F 12.5 °F 1028.7 in West 24.1 mph 24.1 mph 73 % 0.0 in
20:53 17.4 °F 12.5 °F 1028.7 in WSW 18.5 mph 18.5 mph 73 % 0.0 in
20:54 17.4 °F 12.5 °F 1028.7 in West 16.7 mph 16.7 mph 73 % 0.0 in
20:59 17.4 °F 12.3 °F 1028.7 in WSW 24.1 mph 24.1 mph 72 % 0.0 in
21:03 17.4 °F 12.3 °F 1028.7 in WSW 24.1 mph 24.1 mph 72 % 0.0 in
21:04 17.4 °F 12.1 °F 1028.7 in West 20.4 mph 20.4 mph 71 % 0.0 in
21:09 17.4 °F 12.3 °F 1028.7 in WSW 27.8 mph 27.8 mph 72 % 0.0 in
21:10 17.4 °F 12.3 °F 1028.7 in SW 27.8 mph 27.8 mph 72 % 0.0 in
21:14 17.4 °F 12.3 °F 1028.7 in West 22.2 mph 22.2 mph 72 % 0.0 in
21:15 17.4 °F 12.3 °F 1028.7 in WSW 20.4 mph 20.4 mph 72 % 0.0 in
21:20 17.4 °F 12.3 °F 1029.0 in WSW 19.3 mph 19.3 mph 72 % 0.0 in
21:21 17.4 °F 12.3 °F 1029.0 in WSW 22.5 mph 22.5 mph 72 % 0.0 in
21:26 17.3 °F 12.2 °F 1029.0 in WSW 18.5 mph 18.5 mph 72 % 0.0 in
21:28 17.3 °F 12.2 °F 1029.0 in WSW 18.5 mph 18.5 mph 72 % 0.0 in
21:33 17.3 °F 12.0 °F 1029.3 in West 18.5 mph 18.5 mph 71 % 0.0 in
21:38 17.3 °F 12.0 °F 1029.3 in West 24.1 mph 24.1 mph 71 % 0.0 in
21:40 17.3 °F 12.0 °F 1029.3 in WSW 24.1 mph 24.1 mph 71 % 0.0 in
21:45 17.4 °F 11.8 °F 1029.3 in WSW 22.2 mph 22.2 mph 70 % 0.0 in
21:50 17.5 °F 11.9 °F 1029.3 in WSW 22.2 mph 22.2 mph 70 % 0.0 in
21:51 17.5 °F 11.9 °F 1029.3 in WSW 22.2 mph 22.2 mph 70 % 0.0 in
21:56 17.5 °F 11.9 °F 1029.3 in West 17.7 mph 17.7 mph 70 % 0.0 in
21:57 17.5 °F 11.9 °F 1029.3 in West 20.9 mph 20.9 mph 70 % 0.0 in
22:02 17.5 °F 11.9 °F 1029.7 in WSW 18.5 mph 18.5 mph 70 % 0.0 in
22:03 17.5 °F 11.9 °F 1029.7 in West 20.9 mph 20.9 mph 70 % 0.0 in
22:08 17.4 °F 12.1 °F 1029.7 in West 20.4 mph 20.4 mph 71 % 0.0 in
22:13 17.3 °F 12.0 °F 1029.7 in WSW 20.4 mph 20.4 mph 71 % 0.0 in
22:14 17.3 °F 12.0 °F 1029.7 in WSW 20.4 mph 20.4 mph 71 % 0.0 in
22:18 17.3 °F 12.0 °F 1030.0 in West 16.7 mph 16.7 mph 71 % 0.0 in
22:19 17.3 °F 12.2 °F 1030.0 in WSW 13.0 mph 13.0 mph 72 % 0.0 in
22:24 17.3 °F 11.9 °F 1030.0 in West 14.8 mph 14.8 mph 71 % 0.0 in
22:26 17.3 °F 11.9 °F 1030.0 in West 14.8 mph 14.8 mph 71 % 0.0 in
22:28 17.3 °F 11.8 °F 1030.0 in NW 9.3 mph 9.3 mph 70 % 0.0 in
22:33 17.4 °F 11.7 °F 1029.7 in NNW 11.1 mph 11.1 mph 69 % 0.0 in
22:38 17.4 °F 11.7 °F 1029.7 in WNW 3.7 mph 3.7 mph 69 % 0.0 in
22:39 17.5 °F 11.7 °F 1030.0 in West 5.6 mph 5.6 mph 69 % 0.0 in
22:44 17.5 °F 11.7 °F 1030.0 in NW 7.4 mph 7.4 mph 69 % 0.0 in
22:45 17.5 °F 11.5 °F 1030.0 in NNW 9.7 mph 9.7 mph 68 % 0.0 in
22:46 17.5 °F 11.5 °F 1030.0 in NNW 9.3 mph 9.3 mph 68 % 0.0 in
22:51 17.6 °F 11.6 °F 1030.0 in West 7.4 mph 7.4 mph 68 % 0.0 in
22:52 17.6 °F 11.6 °F 1030.0 in West 7.4 mph 7.4 mph 68 % 0.0 in
22:57 17.6 °F 11.4 °F 1030.0 in WSW 13.0 mph 13.0 mph 67 % 0.0 in
23:02 17.6 °F 11.4 °F 1030.4 in NW 5.6 mph 5.6 mph 67 % 0.0 in
23:04 17.7 °F 11.4 °F 1030.4 in WSW 9.3 mph 9.3 mph 67 % 0.0 in
23:09 17.7 °F 11.4 °F 1030.4 in West 11.1 mph 11.1 mph 67 % 0.0 in
23:10 17.7 °F 11.4 °F 1030.4 in WSW 8.0 mph 11.3 mph 67 % 0.0 in
23:15 17.7 °F 11.2 °F 1030.4 in WSW 9.7 mph 9.7 mph 66 % 0.0 in
23:20 17.7 °F 11.4 °F 1030.4 in West 9.3 mph 9.3 mph 67 % 0.0 in
23:21 17.7 °F 11.4 °F 1030.4 in West 11.3 mph 11.3 mph 67 % 0.0 in
23:22 17.7 °F 11.4 °F 1030.4 in WSW 14.8 mph 14.8 mph 67 % 0.0 in
23:27 17.7 °F 11.3 °F 1030.4 in West 9.3 mph 9.3 mph 66 % 0.0 in
23:32 17.7 °F 11.4 °F 1030.4 in West 9.3 mph 9.3 mph 67 % 0.0 in
23:34 17.7 °F 11.4 °F 1030.4 in West 9.3 mph 9.3 mph 67 % 0.0 in
23:39 17.6 °F 10.9 °F 1030.4 in NW 9.3 mph 9.3 mph 65 % 0.0 in
23:40 17.6 °F 10.7 °F 1030.4 in WNW 9.3 mph 9.3 mph 64 % 0.0 in
23:45 17.7 °F 10.3 °F 1030.4 in WNW 9.3 mph 9.3 mph 62 % 0.0 in
23:50 17.8 °F 10.6 °F 1030.4 in NW 7.4 mph 7.4 mph 63 % 0.0 in
23:51 17.8 °F 10.6 °F 1030.4 in NW 7.4 mph 7.4 mph 63 % 0.0 in
23:53 17.7 °F 10.6 °F 1030.4 in West 11.3 mph 11.3 mph 63 % 0.0 in
23:57 17.7 °F 10.3 °F 1030.7 in West 9.3 mph 9.3 mph 62 % 0.0 in
Puerto Banus, Marbella
Elogios de Weather Underground - 2.75 mb

Guión original por  Jim McMurry - jmcmurry@mwt.net Adaptado para la plantilla por  Wim van der Kuil - Leuven-Template.eu

Usted encontrará nuestra información del tiempo también en:

Weather Underground

Iberian Peninsula Weather Network